createdAt,value
2017-07-18T00:02:02.747Z,12.37
2017-07-18T00:04:31.040Z,12.40
2017-07-18T00:06:59.313Z,12.97
2017-07-18T00:09:27.706Z,13.00
2017-07-18T00:11:56.073Z,12.00
2017-07-18T00:14:24.449Z,12.30
2017-07-18T00:16:52.842Z,12.40
2017-07-18T00:19:21.112Z,12.00
2017-07-18T00:21:49.411Z,12.37
2017-07-18T00:24:17.786Z,12.67
2017-07-18T00:26:46.053Z,13.10
2017-07-18T00:29:14.349Z,13.20
2017-07-18T00:31:42.672Z,13.60
2017-07-18T00:34:10.944Z,14.47
2017-07-18T00:36:39.290Z,14.03
2017-07-18T00:39:07.659Z,13.77
2017-07-18T00:41:36.073Z,12.70
2017-07-18T00:44:05.238Z,12.80
2017-07-18T00:46:33.525Z,13.87
2017-07-18T00:49:01.804Z,13.17
2017-07-18T00:51:30.094Z,12.87
2017-07-18T00:53:59.162Z,12.40
2017-07-18T00:56:27.558Z,12.73
2017-07-18T00:58:55.936Z,13.30
2017-07-18T01:01:24.209Z,13.03
2017-07-18T01:03:52.576Z,13.27
2017-07-18T01:06:20.841Z,12.67
2017-07-18T01:08:49.150Z,12.93
2017-07-18T01:11:17.420Z,14.20
2017-07-18T01:13:45.694Z,12.97
2017-07-18T01:16:14.067Z,13.90
2017-07-18T01:18:43.125Z,12.73
2017-07-18T01:21:11.438Z,13.70
2017-07-18T01:23:39.790Z,12.20
2017-07-18T01:26:08.084Z,11.00
2017-07-18T01:28:36.344Z,11.87
2017-07-18T01:31:04.619Z,13.43
2017-07-18T01:33:33.017Z,13.13
2017-07-18T01:36:01.294Z,11.60
2017-07-18T01:38:29.615Z,10.30
2017-07-18T01:40:57.894Z,11.17
2017-07-18T01:43:26.224Z,10.87
2017-07-18T01:45:54.500Z,11.17
2017-07-18T01:48:22.808Z,10.43
2017-07-18T01:50:51.089Z,10.20
2017-07-18T01:53:19.444Z,10.37
2017-07-18T01:55:47.723Z,10.77
2017-07-18T01:58:15.998Z,10.43
2017-07-18T02:00:44.308Z,9.87
2017-07-18T02:03:12.576Z,9.63
2017-07-18T02:05:40.844Z,9.47
2017-07-18T02:08:09.130Z,9.17
2017-07-18T02:10:37.417Z,9.60
2017-07-18T02:13:05.790Z,8.90
2017-07-18T02:15:34.061Z,9.20
2017-07-18T02:18:02.317Z,9.57
2017-07-18T02:20:30.635Z,9.27
2017-07-18T02:22:58.913Z,8.70
2017-07-18T02:25:27.293Z,9.40
2017-07-18T02:27:55.573Z,8.30
2017-07-18T02:30:23.847Z,9.07
2017-07-18T02:32:52.218Z,8.63
2017-07-18T02:35:20.513Z,9.30
2017-07-18T02:37:48.988Z,8.83
2017-07-18T02:40:17.228Z,8.80
2017-07-18T02:42:45.529Z,9.30
2017-07-18T02:45:13.802Z,7.90
2017-07-18T02:47:42.095Z,9.13
2017-07-18T02:50:10.477Z,10.07
2017-07-18T02:52:38.863Z,8.30
2017-07-18T02:55:07.126Z,8.23
2017-07-18T02:57:35.409Z,8.80
2017-07-18T03:00:03.794Z,8.10
2017-07-18T03:02:32.041Z,8.00
2017-07-18T03:05:00.441Z,8.40
2017-07-18T03:07:28.704Z,8.20
2017-07-18T03:09:57.000Z,8.30
2017-07-18T03:12:25.411Z,8.40
2017-07-18T03:14:53.677Z,8.93
2017-07-18T03:17:22.039Z,7.63
2017-07-18T03:19:50.305Z,8.23
2017-07-18T03:22:18.616Z,8.83
2017-07-18T03:24:46.981Z,8.30
2017-07-18T03:27:15.258Z,8.20
2017-07-18T03:29:43.631Z,8.07
2017-07-18T03:32:11.921Z,8.70
2017-07-18T03:34:40.210Z,8.53
2017-07-18T03:37:08.491Z,7.50
2017-07-18T03:39:36.762Z,8.00
2017-07-18T03:42:05.153Z,6.93
2017-07-18T03:44:33.410Z,7.77
2017-07-18T03:47:01.678Z,7.17
2017-07-18T03:49:29.990Z,7.70
2017-07-18T03:51:58.266Z,7.00
2017-07-18T03:54:26.539Z,7.00
2017-07-18T03:56:54.948Z,7.80
2017-07-18T03:59:23.187Z,7.90
2017-07-18T04:01:51.465Z,7.80
2017-07-18T04:04:19.752Z,7.30
2017-07-18T04:06:48.024Z,7.30
2017-07-18T04:09:16.318Z,7.40
2017-07-18T04:11:44.589Z,6.90
2017-07-18T04:14:12.853Z,7.93
2017-07-18T04:16:41.126Z,7.63
2017-07-18T04:19:09.391Z,7.20
2017-07-18T04:21:37.674Z,7.47
2017-07-18T04:24:05.936Z,6.77
2017-07-18T04:26:34.761Z,6.70
2017-07-18T04:29:03.041Z,7.40
2017-07-18T04:31:31.308Z,6.70
2017-07-18T04:33:59.590Z,7.57
2017-07-18T04:36:27.861Z,6.60
2017-07-18T04:38:56.143Z,6.83
2017-07-18T04:41:24.399Z,6.60
2017-07-18T04:43:52.681Z,6.03
2017-07-18T04:46:21.069Z,6.87
2017-07-18T04:48:49.327Z,7.00
2017-07-18T04:51:17.613Z,7.20
2017-07-18T04:53:45.880Z,6.50
2017-07-18T04:56:14.271Z,5.50
2017-07-18T04:58:42.520Z,7.67
2017-07-18T05:01:10.811Z,7.33
2017-07-18T05:03:39.088Z,9.80
2017-07-18T05:06:07.377Z,8.67
2017-07-18T05:08:35.767Z,7.87
2017-07-18T05:11:04.154Z,7.40
2017-07-18T05:13:32.487Z,6.93
2017-07-18T05:16:00.739Z,6.93
2017-07-18T05:18:29.070Z,6.17
2017-07-18T05:20:57.333Z,5.40
2017-07-18T05:23:25.593Z,6.07
2017-07-18T05:25:53.945Z,5.83
2017-07-18T05:28:22.983Z,6.20
2017-07-18T05:30:51.292Z,6.60
2017-07-18T05:33:19.565Z,5.97
2017-07-18T05:35:47.834Z,6.73
2017-07-18T05:38:16.135Z,7.00
2017-07-18T05:40:45.166Z,6.93
2017-07-18T05:43:13.486Z,7.10
2017-07-18T05:45:41.746Z,6.57
2017-07-18T05:48:10.139Z,6.90
2017-07-18T05:50:38.423Z,6.43
2017-07-18T05:53:06.703Z,6.03
2017-07-18T05:55:34.973Z,5.90
2017-07-18T05:58:03.391Z,6.87
2017-07-18T06:00:31.784Z,5.77
2017-07-18T06:03:00.051Z,5.50
2017-07-18T06:05:28.355Z,6.60
2017-07-18T06:07:57.418Z,5.70
2017-07-18T06:10:25.722Z,5.70
2017-07-18T06:12:53.986Z,6.20
2017-07-18T06:15:22.365Z,6.50
2017-07-18T06:17:50.623Z,5.60
2017-07-18T06:20:19.122Z,15.57
2017-07-18T06:22:47.393Z,7.30
2017-07-18T06:25:15.659Z,5.30
2017-07-18T06:27:43.978Z,5.27
2017-07-18T06:30:12.238Z,5.30
2017-07-18T06:32:40.620Z,5.37
2017-07-18T06:35:08.974Z,5.70
2017-07-18T06:37:38.001Z,4.60
2017-07-18T06:40:06.624Z,5.10
2017-07-18T06:42:34.887Z,4.50
2017-07-18T06:45:03.184Z,4.20
2017-07-18T06:47:31.465Z,4.30
2017-07-18T06:49:59.844Z,4.17
2017-07-18T06:52:28.225Z,4.40
2017-07-18T06:54:56.482Z,6.20
2017-07-18T06:57:24.751Z,3.60
2017-07-18T06:59:53.014Z,4.23
2017-07-18T07:02:21.333Z,3.97
2017-07-18T07:04:49.903Z,3.60
2017-07-18T07:07:18.148Z,4.03
2017-07-18T07:09:46.460Z,3.40
2017-07-18T07:12:14.738Z,3.90
2017-07-18T07:14:43.008Z,3.30
2017-07-18T07:17:11.597Z,3.57
2017-07-18T07:19:39.865Z,3.30
2017-07-18T07:22:08.113Z,4.00
2017-07-18T07:24:36.451Z,3.60
2017-07-18T07:27:04.716Z,3.60
2017-07-18T07:29:33.031Z,3.50
2017-07-18T07:32:01.370Z,3.93
2017-07-18T07:34:29.628Z,3.23
2017-07-18T07:36:57.891Z,4.50
2017-07-18T07:39:26.161Z,3.80
2017-07-18T07:41:54.463Z,3.20
2017-07-18T07:44:22.768Z,4.00
2017-07-18T07:46:51.042Z,3.53
2017-07-18T07:49:19.369Z,4.17
2017-07-18T07:51:47.645Z,3.43
2017-07-18T07:54:15.971Z,3.20
2017-07-18T07:56:44.246Z,4.10
2017-07-18T07:59:12.524Z,4.30
2017-07-18T08:01:40.904Z,4.00
2017-07-18T08:04:09.285Z,4.00
2017-07-18T08:06:37.564Z,4.17
2017-07-18T08:09:05.850Z,3.43
2017-07-18T08:11:34.117Z,3.90
2017-07-18T08:14:02.384Z,3.73
2017-07-18T08:16:30.770Z,4.47
2017-07-18T08:18:59.153Z,4.13
2017-07-18T08:21:27.429Z,3.60
2017-07-18T08:23:55.704Z,3.80
2017-07-18T08:26:23.986Z,4.70
2017-07-18T08:28:52.236Z,3.50
2017-07-18T08:31:20.536Z,3.90
2017-07-18T08:33:48.808Z,4.27
2017-07-18T08:36:17.072Z,3.73
2017-07-18T08:38:45.387Z,3.70
2017-07-18T08:41:13.653Z,3.80
2017-07-18T08:43:41.958Z,3.97
2017-07-18T08:46:11.021Z,4.40
2017-07-18T08:48:39.290Z,3.83
2017-07-18T08:51:07.577Z,4.17
2017-07-18T08:53:35.936Z,4.10
2017-07-18T08:56:04.243Z,4.10
2017-07-18T08:58:32.522Z,5.07
2017-07-18T09:01:01.611Z,4.37
2017-07-18T09:03:29.987Z,3.40
2017-07-18T09:05:58.246Z,4.57
2017-07-18T09:08:26.544Z,3.80
2017-07-18T09:10:54.819Z,3.83
2017-07-18T09:13:23.092Z,3.90
2017-07-18T09:15:51.365Z,3.50
2017-07-18T09:18:19.632Z,4.93
2017-07-18T09:20:48.026Z,3.90
2017-07-18T09:23:16.305Z,4.70
2017-07-18T09:25:44.610Z,4.00
2017-07-18T09:28:13.675Z,4.10
2017-07-18T09:30:41.962Z,4.10
2017-07-18T09:33:10.291Z,3.90
2017-07-18T09:35:38.609Z,3.83
2017-07-18T09:38:06.861Z,3.93
2017-07-18T09:40:35.156Z,3.70
2017-07-18T09:43:03.395Z,4.67
2017-07-18T09:45:31.826Z,4.03
2017-07-18T09:48:00.188Z,4.30
2017-07-18T09:50:28.458Z,3.73
2017-07-18T09:52:57.561Z,4.23
2017-07-18T09:55:25.832Z,4.47
2017-07-18T09:57:54.220Z,4.07
2017-07-18T10:00:22.502Z,3.47
2017-07-18T10:02:50.761Z,4.20
2017-07-18T10:05:19.059Z,4.13
2017-07-18T10:07:47.326Z,4.27
2017-07-18T10:10:15.591Z,3.97
2017-07-18T10:12:43.954Z,4.70
2017-07-18T10:15:12.205Z,4.37
2017-07-18T10:17:40.474Z,4.60
2017-07-18T10:20:09.511Z,4.17
2017-07-18T10:22:37.841Z,4.40
2017-07-18T10:25:07.108Z,4.40
2017-07-18T10:27:35.377Z,4.20
2017-07-18T10:30:03.632Z,4.00
2017-07-18T10:32:31.939Z,4.30
2017-07-18T10:35:00.214Z,3.93
2017-07-18T10:37:28.576Z,4.43
2017-07-18T10:39:56.880Z,4.87
2017-07-18T10:42:25.147Z,4.60
2017-07-18T10:44:53.514Z,3.83
2017-07-18T10:47:21.815Z,4.00
2017-07-18T10:49:50.210Z,3.70
2017-07-18T10:52:18.568Z,4.27
2017-07-18T10:54:46.827Z,4.30
2017-07-18T10:57:15.095Z,4.17
2017-07-18T10:59:43.368Z,4.07
2017-07-18T11:02:11.777Z,3.83
2017-07-18T11:04:40.050Z,3.90
2017-07-18T11:07:08.325Z,3.70
2017-07-18T11:09:36.608Z,3.80
2017-07-18T11:12:04.869Z,3.77
2017-07-18T11:14:33.263Z,3.90
2017-07-18T11:17:01.583Z,4.40
2017-07-18T11:19:30.711Z,3.87
2017-07-18T11:21:58.966Z,4.10
2017-07-18T11:24:27.253Z,3.80
2017-07-18T11:26:55.562Z,4.30
2017-07-18T11:29:23.839Z,3.83
2017-07-18T11:31:52.083Z,3.60
2017-07-18T11:34:20.403Z,4.50
2017-07-18T11:36:48.666Z,4.03
2017-07-18T11:39:17.095Z,4.60
2017-07-18T11:41:46.142Z,3.80
2017-07-18T11:44:14.402Z,4.20
2017-07-18T11:46:42.669Z,3.70
2017-07-18T11:49:10.978Z,3.80
2017-07-18T11:51:39.255Z,4.60
2017-07-18T11:54:07.534Z,4.37
2017-07-18T11:56:35.809Z,3.93
2017-07-18T11:59:04.081Z,3.97
2017-07-18T12:01:32.335Z,4.50
2017-07-18T12:04:00.616Z,4.60
2017-07-18T12:06:29.653Z,4.23
2017-07-18T12:08:57.929Z,4.03
2017-07-18T12:11:26.242Z,3.90
2017-07-18T12:13:54.502Z,4.50
2017-07-18T12:16:22.806Z,3.47
2017-07-18T12:18:59.815Z,3.47
2017-07-18T12:21:28.859Z,3.10
2017-07-18T12:23:57.135Z,3.33
2017-07-18T12:26:25.422Z,3.53
2017-07-18T12:28:53.717Z,4.23
2017-07-18T12:31:21.991Z,3.70
2017-07-18T12:33:50.236Z,3.90
2017-07-18T12:36:18.533Z,3.20
2017-07-18T12:38:46.821Z,3.40
2017-07-18T12:41:15.176Z,3.03
2017-07-18T12:43:43.485Z,3.50
2017-07-18T12:46:11.771Z,3.33
2017-07-18T12:48:40.103Z,3.57
2017-07-18T12:51:08.395Z,3.50
2017-07-18T12:53:36.675Z,3.50
2017-07-18T12:56:04.950Z,3.23
2017-07-18T12:58:33.221Z,3.23
2017-07-18T13:01:01.506Z,3.80
2017-07-18T13:03:29.793Z,3.43
2017-07-18T13:05:58.049Z,3.10
2017-07-18T13:08:26.338Z,2.97
2017-07-18T13:10:54.576Z,2.93
2017-07-18T13:13:22.891Z,3.20
2017-07-18T13:15:51.170Z,3.27
2017-07-18T13:18:19.535Z,3.40
2017-07-18T13:20:47.794Z,2.90
2017-07-18T13:23:16.093Z,3.40
2017-07-18T13:25:44.373Z,3.60
2017-07-18T13:28:12.651Z,3.50
2017-07-18T13:30:40.930Z,3.30
2017-07-18T13:33:09.203Z,3.30
2017-07-18T13:35:37.585Z,2.97
2017-07-18T13:38:05.866Z,3.37
2017-07-18T13:40:34.255Z,3.67
2017-07-18T13:43:02.525Z,3.43
2017-07-18T13:45:30.899Z,4.10
2017-07-18T13:47:59.159Z,3.90
2017-07-18T13:50:27.485Z,3.97
2017-07-18T13:52:55.764Z,3.37
2017-07-18T13:55:24.049Z,3.73
2017-07-18T13:57:52.326Z,2.80
2017-07-18T14:00:20.683Z,4.00
2017-07-18T14:02:48.982Z,3.10
2017-07-18T14:05:17.275Z,3.60
2017-07-18T14:07:45.526Z,3.43
2017-07-18T14:10:13.805Z,3.40
2017-07-18T14:12:42.182Z,3.67
2017-07-18T14:15:10.571Z,3.53
2017-07-18T14:17:39.054Z,3.63
2017-07-18T14:20:07.319Z,4.30
2017-07-18T14:22:35.606Z,4.07
2017-07-18T14:25:03.988Z,4.10
2017-07-18T14:27:32.386Z,3.67
2017-07-18T14:30:00.650Z,4.37
2017-07-18T14:32:29.035Z,3.30
2017-07-18T14:34:57.409Z,3.90
2017-07-18T14:37:25.779Z,4.20
2017-07-18T14:39:54.060Z,4.40
2017-07-18T14:42:22.449Z,4.50
2017-07-18T14:44:50.722Z,3.97
2017-07-18T14:47:19.008Z,4.13
2017-07-18T14:49:47.271Z,4.17
2017-07-18T14:52:15.651Z,4.00
2017-07-18T14:54:43.905Z,6.83
2017-07-18T14:57:12.160Z,3.80
2017-07-18T14:59:40.476Z,4.30
2017-07-18T15:02:08.746Z,4.43
2017-07-18T15:04:37.115Z,4.20
2017-07-18T15:07:05.407Z,4.20
2017-07-18T15:09:33.786Z,18.13
2017-07-18T15:12:02.158Z,16.00
2017-07-18T15:14:30.531Z,4.03
2017-07-18T15:16:58.798Z,5.17
2017-07-18T15:19:27.092Z,13.70
2017-07-18T15:21:55.370Z,4.10
2017-07-18T15:24:23.640Z,3.80
2017-07-18T15:26:51.925Z,4.30
2017-07-18T15:29:20.209Z,4.13
2017-07-18T15:31:48.490Z,4.13
2017-07-18T15:34:16.819Z,3.93
2017-07-18T15:36:45.096Z,3.50
2017-07-18T15:39:13.360Z,4.17
2017-07-18T15:41:41.654Z,4.17
2017-07-18T15:44:10.003Z,3.70
2017-07-18T15:46:38.307Z,4.50
2017-07-18T15:49:06.569Z,4.20
2017-07-18T15:51:34.872Z,4.40
2017-07-18T15:54:03.148Z,4.47
2017-07-18T15:56:31.526Z,4.83
2017-07-18T15:58:59.795Z,4.10
2017-07-18T16:01:28.075Z,4.80
2017-07-18T16:03:56.354Z,5.10
2017-07-18T16:06:24.735Z,4.00
2017-07-18T16:08:52.986Z,3.60
2017-07-18T16:11:21.305Z,4.23
2017-07-18T16:13:50.484Z,4.30
2017-07-18T16:16:18.859Z,4.53
2017-07-18T16:18:47.249Z,4.13
2017-07-18T16:21:15.524Z,3.90
2017-07-18T16:23:43.890Z,4.13
2017-07-18T16:26:12.277Z,4.00
2017-07-18T16:28:40.674Z,4.40
2017-07-18T16:31:08.936Z,4.03
2017-07-18T16:33:37.321Z,4.00
2017-07-18T16:36:05.584Z,4.03
2017-07-18T16:38:33.983Z,4.07
2017-07-18T16:41:02.248Z,4.03
2017-07-18T16:43:30.735Z,4.57
2017-07-18T16:45:59.000Z,3.90
2017-07-18T16:48:27.390Z,4.10
2017-07-18T16:50:55.645Z,3.80
2017-07-18T16:53:23.965Z,3.87
2017-07-18T16:55:52.233Z,3.57
2017-07-18T16:58:20.498Z,3.70
2017-07-18T17:00:48.921Z,4.13
2017-07-18T17:03:17.977Z,3.87
2017-07-18T17:05:46.251Z,4.20
2017-07-18T17:08:14.537Z,4.47
2017-07-18T17:10:42.809Z,4.53
2017-07-18T17:13:11.056Z,4.63
2017-07-18T17:15:39.358Z,4.40
2017-07-18T17:18:07.630Z,4.03
2017-07-18T17:20:35.999Z,4.63
2017-07-18T17:23:04.317Z,4.30
2017-07-18T17:25:32.690Z,4.13
2017-07-18T17:28:00.943Z,4.27
2017-07-18T17:30:29.216Z,4.23
2017-07-18T17:32:57.504Z,4.63
2017-07-18T17:35:25.754Z,4.47
2017-07-18T17:37:54.071Z,4.47
2017-07-18T17:40:23.153Z,4.23
2017-07-18T17:42:51.432Z,4.23
2017-07-18T17:45:19.709Z,10.30
2017-07-18T17:47:48.087Z,5.23
2017-07-18T17:50:16.413Z,5.57
2017-07-18T17:52:44.690Z,5.00
2017-07-18T17:55:12.986Z,5.27
2017-07-18T17:57:41.290Z,5.20
2017-07-18T18:00:09.558Z,5.87
2017-07-18T18:02:37.821Z,5.60
2017-07-18T18:05:06.103Z,4.57
2017-07-18T18:07:34.378Z,4.50
2017-07-18T18:10:02.782Z,9.20
2017-07-18T18:12:32.535Z,4.77
2017-07-18T18:15:00.829Z,5.00
2017-07-18T18:17:29.124Z,7.40
2017-07-18T18:19:57.409Z,5.43
2017-07-18T18:22:25.686Z,5.90
2017-07-18T18:24:54.091Z,5.43
2017-07-18T18:27:22.347Z,4.67
2017-07-18T18:29:50.636Z,5.40
2017-07-18T18:32:19.009Z,4.93
2017-07-18T18:34:47.295Z,6.00
2017-07-18T18:37:15.646Z,4.80
2017-07-18T18:39:44.036Z,4.90
2017-07-18T18:42:12.310Z,5.23
2017-07-18T18:44:40.692Z,5.80
2017-07-18T18:47:08.960Z,6.03
2017-07-18T18:49:37.240Z,4.97
2017-07-18T18:52:05.515Z,5.90
2017-07-18T18:54:33.797Z,6.17
2017-07-18T18:57:02.174Z,5.70
2017-07-18T18:59:30.433Z,4.93
2017-07-18T19:01:58.830Z,6.03
2017-07-18T19:04:27.110Z,5.07
2017-07-18T19:06:55.497Z,5.60
2017-07-18T19:09:23.764Z,6.77
2017-07-18T19:11:52.042Z,6.43
2017-07-18T19:14:20.302Z,5.47
2017-07-18T19:16:48.596Z,6.80
2017-07-18T19:19:16.891Z,7.07
2017-07-18T19:21:45.204Z,6.10
2017-07-18T19:24:13.568Z,5.43
2017-07-18T19:26:42.627Z,6.80
2017-07-18T19:29:10.905Z,6.73
2017-07-18T19:31:39.155Z,6.40
2017-07-18T19:34:07.456Z,6.60
2017-07-18T19:36:35.703Z,6.13
2017-07-18T19:39:03.990Z,5.67
2017-07-18T19:41:32.391Z,6.40
2017-07-18T19:44:00.654Z,4.70
2017-07-18T19:46:28.919Z,6.33
2017-07-18T19:48:57.225Z,5.40
2017-07-18T19:51:25.496Z,6.00
2017-07-18T19:53:53.848Z,6.57
2017-07-18T19:56:22.119Z,6.27
2017-07-18T19:58:50.388Z,6.40
2017-07-18T20:01:18.691Z,6.50
2017-07-18T20:03:46.960Z,6.20
2017-07-18T20:06:15.262Z,7.10
2017-07-18T20:08:43.554Z,6.27
2017-07-18T20:11:12.147Z,11.20
2017-07-18T20:13:40.503Z,7.33
2017-07-18T20:16:08.882Z,6.63
2017-07-18T20:18:37.173Z,6.50
2017-07-18T20:21:05.530Z,6.00
2017-07-18T20:23:33.813Z,6.50
2017-07-18T20:26:02.196Z,6.80
2017-07-18T20:28:30.463Z,6.67
2017-07-18T20:30:58.842Z,6.70
2017-07-18T20:33:27.113Z,6.43
2017-07-18T20:35:55.385Z,6.70
2017-07-18T20:38:23.671Z,6.87
2017-07-18T20:40:51.975Z,7.40
2017-07-18T20:43:20.217Z,7.30
2017-07-18T20:45:48.612Z,6.77
2017-07-18T20:48:16.871Z,7.20
2017-07-18T20:50:45.181Z,8.00
2017-07-18T20:53:13.578Z,7.97
2017-07-18T20:55:41.829Z,7.80
2017-07-18T20:58:10.213Z,6.90
2017-07-18T21:00:38.475Z,6.50
2017-07-18T21:03:06.847Z,6.80
2017-07-18T21:05:35.128Z,7.00
2017-07-18T21:08:03.526Z,6.97
2017-07-18T21:10:31.869Z,15.47
2017-07-18T21:13:00.273Z,8.50
2017-07-18T21:15:28.520Z,8.10
2017-07-18T21:17:56.811Z,7.30
2017-07-18T21:20:25.077Z,6.80
2017-07-18T21:22:53.377Z,7.20
2017-07-18T21:25:21.644Z,42.50
2017-07-18T21:27:50.042Z,8.80
2017-07-18T21:30:18.417Z,10.40
2017-07-18T21:32:46.752Z,8.03
2017-07-18T21:35:15.085Z,7.17
2017-07-18T21:37:43.347Z,7.63
2017-07-18T21:40:11.631Z,7.20
2017-07-18T21:42:39.932Z,7.27
2017-07-18T21:45:08.993Z,6.10
2017-07-18T21:47:37.249Z,6.80
2017-07-18T21:50:05.549Z,12.20
2017-07-18T21:52:33.801Z,8.70
2017-07-18T21:55:02.071Z,7.43
2017-07-18T21:57:30.464Z,7.40
2017-07-18T21:59:58.766Z,7.60
2017-07-18T22:02:27.038Z,7.70
2017-07-18T22:04:55.352Z,7.20
2017-07-18T22:07:24.417Z,6.20
2017-07-18T22:09:52.844Z,7.33
2017-07-18T22:12:21.889Z,6.83
2017-07-18T22:14:50.169Z,7.67
2017-07-18T22:17:18.529Z,7.13
2017-07-18T22:19:46.818Z,7.77
2017-07-18T22:22:15.215Z,10.00
2017-07-18T22:24:43.498Z,7.73
2017-07-18T22:27:11.752Z,6.70
2017-07-18T22:29:40.037Z,6.90
2017-07-18T22:32:08.296Z,8.93
2017-07-18T22:34:36.672Z,6.53
2017-07-18T22:37:04.941Z,9.07
2017-07-18T22:39:33.225Z,7.57
2017-07-18T22:42:01.517Z,6.50
2017-07-18T22:44:29.815Z,7.53
2017-07-18T22:46:58.170Z,7.37
2017-07-18T22:49:26.449Z,6.00
2017-07-18T22:51:54.733Z,7.40
2017-07-18T22:54:22.998Z,7.83
2017-07-18T22:56:51.328Z,6.53
2017-07-18T22:59:20.383Z,7.00
2017-07-18T23:01:48.660Z,7.97
2017-07-18T23:04:17.038Z,7.33
2017-07-18T23:06:45.297Z,6.77
2017-07-18T23:09:13.591Z,7.60
2017-07-18T23:11:41.862Z,6.93
2017-07-18T23:14:10.147Z,6.87
2017-07-18T23:16:38.422Z,6.87
2017-07-18T23:19:06.660Z,7.00
2017-07-18T23:21:34.970Z,7.50
2017-07-18T23:24:03.240Z,7.90
2017-07-18T23:26:31.611Z,8.47
2017-07-18T23:28:59.903Z,6.60
2017-07-18T23:31:28.181Z,7.50
2017-07-18T23:33:56.447Z,8.07
2017-07-18T23:36:24.739Z,7.60
2017-07-18T23:38:53.114Z,7.57
2017-07-18T23:41:21.413Z,7.73
2017-07-18T23:43:49.731Z,7.47
2017-07-18T23:46:18.050Z,6.90
2017-07-18T23:48:46.437Z,6.97
2017-07-18T23:51:14.696Z,7.17
2017-07-18T23:53:43.106Z,7.43
2017-07-18T23:56:11.364Z,7.50
2017-07-18T23:58:39.772Z,7.53
